Time;durP1;ratioP1;P1;durP2;ratioP2;P2;SDS_P1;SDS_P2;PMS_P1;PMS_P2;Temp;Humidity;BMP_temperature;BMP_pressure;BME280_temperature;BME280_humidity;BME280_pressure;Samples;Min_cycle;Max_cycle;Signal;HPM_P1;HPM_P2
2024/03/11 00:02:27;;;;;;;12.80;3.58;;;;;;;-5.64;45.08;100741.69;4782717;29;20039;-74
2024/03/11 00:04:57;;;;;;;11.18;4.15;;;;;;;-5.64;44.86;100754.38;4785427;29;20594;-73
2024/03/11 00:07:25;;;;;;;8.52;3.78;;;;;;;-5.69;45.33;100744.66;4783107;29;20043;-73
2024/03/11 00:09:52;;;;;;;18.58;3.88;;;;;;;-5.71;45.49;100751.28;4799751;29;20177;-73
2024/03/11 00:12:22;;;;;;;12.38;4.07;;;;;;;-6.17;45.41;100678.78;4801666;29;20083;-72
2024/03/11 00:14:51;;;;;;;10.07;4.10;;;;;;;-6.10;44.98;100703.81;4796641;29;20047;-72
2024/03/11 00:17:19;;;;;;;12.38;4.20;;;;;;;-6.05;45.24;100725.28;4813237;29;20495;-72
2024/03/11 00:19:46;;;;;;;9.65;3.67;;;;;;;-6.12;45.17;100696.84;4785981;29;20072;-71
2024/03/11 00:22:12;;;;;;;11.20;3.85;;;;;;;-5.67;45.29;100768.50;4798336;29;20047;-71
2024/03/11 00:24:38;;;;;;;5.57;3.25;;;;;;;-6.29;45.14;100668.66;4770277;29;20070;-72
2024/03/11 00:27:07;;;;;;;7.15;3.25;;;;;;;-6.31;45.26;100671.84;4796519;29;20050;-72
2024/03/11 00:29:37;;;;;;;9.88;3.60;;;;;;;-5.77;45.06;100761.88;4783123;29;20553;-72
2024/03/11 00:32:05;;;;;;;10.30;3.20;;;;;;;-5.89;45.57;100756.81;4796278;29;20051;-73
2024/03/11 00:34:32;;;;;;;17.88;3.55;;;;;;;-6.34;45.51;100661.50;4784620;29;20080;-73
2024/03/11 00:36:59;;;;;;;9.27;3.53;;;;;;;-5.62;45.17;100767.16;4800315;29;20062;-71
2024/03/11 00:39:26;;;;;;;11.93;3.55;;;;;;;-5.83;45.12;100733.53;4780864;29;20100;-71
2024/03/11 00:41:52;;;;;;;16.52;3.53;;;;;;;-5.65;45.38;100783.03;4789754;29;20088;-73
2024/03/11 00:44:22;;;;;;;9.73;3.53;;;;;;;-6.18;45.24;100686.28;4788158;29;20042;-73
2024/03/11 00:46:49;;;;;;;9.95;3.05;;;;;;;-5.88;45.43;100752.59;4787773;29;20042;-72
2024/03/11 00:49:17;;;;;;;10.05;3.40;;;;;;;-6.31;45.41;100685.38;4815411;29;20073;-71
2024/03/11 00:51:43;;;;;;;17.13;4.18;;;;;;;-5.91;45.21;100748.19;4799708;29;20047;-72
2024/03/11 00:54:09;;;;;;;17.40;4.07;;;;;;;-6.38;45.12;100675.56;4784550;29;20141;-73
2024/03/11 00:56:35;;;;;;;12.73;4.22;;;;;;;-5.99;45.36;100756.88;4815172;29;20142;-72
2024/03/11 00:59:04;;;;;;;12.48;3.30;;;;;;;-5.87;45.73;100789.84;4794929;29;20038;-72
2024/03/11 01:01:31;;;;;;;10.23;3.35;;;;;;;-6.07;45.38;100764.84;4788928;29;20034;-73
2024/03/11 01:03:58;;;;;;;13.10;4.13;;;;;;;-5.90;45.47;100790.53;4832170;29;20043;-72
2024/03/11 01:06:26;;;;;;;11.25;4.13;;;;;;;-5.91;45.92;100794.69;4802893;29;20050;-73
2024/03/11 01:08:54;;;;;;;15.15;4.40;;;;;;;-6.17;45.67;100761.50;4829270;29;20050;-74
2024/03/11 01:11:24;;;;;;;10.63;4.20;;;;;;;-6.25;45.67;100753.34;4786559;29;20042;-72
2024/03/11 01:13:51;;;;;;;10.88;3.88;;;;;;;-6.39;45.61;100737.13;4800161;29;20038;-75
2024/03/11 01:16:17;;;;;;;8.23;3.03;;;;;;;-6.13;45.35;100781.25;4799989;29;20042;-74
2024/03/11 01:18:45;;;;;;;12.98;3.95;;;;;;;-6.63;45.75;100706.69;4788638;29;20118;-72
2024/03/11 01:21:17;;;;;;;8.32;2.92;;;;;;;-6.55;46.12;100732.59;4798748;29;20046;-75
2024/03/11 01:23:47;;;;;;;8.30;2.78;;;;;;;-6.33;46.11;100772.19;4801074;29;20050;-73
2024/03/11 01:26:13;;;;;;;5.75;2.63;;;;;;;-6.18;46.77;100785.13;4799966;29;20128;-74
2024/03/11 01:28:40;;;;;;;8.85;2.80;;;;;;;-6.38;46.64;100739.78;4803026;29;20042;-72
2024/03/11 01:31:07;;;;;;;10.52;2.97;;;;;;;-5.90;46.85;100791.41;4787174;29;20049;-73
2024/03/11 01:33:33;;;;;;;5.25;2.63;;;;;;;-6.20;46.81;100729.25;4785619;29;20042;-73
2024/03/11 01:35:59;;;;;;;9.50;2.70;;;;;;;-5.92;47.13;100733.75;4772342;29;20413;-72
2024/03/11 01:38:26;;;;;;;9.90;2.35;;;;;;;-5.24;46.49;100822.31;4793232;29;20045;-72
2024/03/11 01:40:52;;;;;;;8.65;3.20;;;;;;;-5.08;47.10;100813.22;4827457;29;20074;-73
2024/03/11 01:43:19;;;;;;;7.38;2.85;;;;;;;-5.01;46.66;100785.81;4802546;29;20053;-72
2024/03/11 01:45:46;;;;;;;8.60;2.80;;;;;;;-4.89;46.88;100790.88;4800849;29;20043;-73
2024/03/11 01:48:12;;;;;;;7.47;3.05;;;;;;;-5.06;46.75;100733.84;4815914;29;20775;-73
2024/03/11 01:50:38;;;;;;;7.50;2.67;;;;;;;-4.92;46.80;100737.34;4801744;29;20062;-73
2024/03/11 01:53:09;;;;;;;6.40;2.58;;;;;;;-4.79;46.80;100735.66;4812321;29;20050;-73
2024/03/11 01:55:37;;;;;;;7.43;2.83;;;;;;;-4.32;46.68;100795.50;4792193;29;20042;-72
2024/03/11 01:58:09;;;;;;;7.40;2.85;;;;;;;-4.13;47.03;100802.72;4798149;29;20049;-74
2024/03/11 02:00:37;;;;;;;10.35;3.45;;;;;;;-3.89;46.87;100820.38;4817623;29;20054;-72
2024/03/11 02:03:03;;;;;;;6.68;3.08;;;;;;;-4.03;46.77;100784.72;4814541;29;20102;-73
2024/03/11 02:05:29;;;;;;;6.55;3.10;;;;;;;-4.01;46.52;100767.03;4797014;29;20050;-73
2024/03/11 02:08:01;;;;;;;8.00;3.70;;;;;;;-3.58;46.55;100830.88;4797616;29;20046;-72
2024/03/11 02:10:28;;;;;;;8.68;3.33;;;;;;;-3.53;46.87;100826.09;4787656;29;20042;-72
2024/03/11 02:12:59;;;;;;;11.25;3.33;;;;;;;-3.50;46.55;100828.84;4796999;29;20054;-71
2024/03/11 02:15:25;;;;;;;6.57;2.88;;;;;;;-3.53;46.79;100828.63;4770322;29;20054;-71
2024/03/11 02:17:53;;;;;;;7.55;2.90;;;;;;;-3.50;47.06;100809.34;4769245;29;20118;-72
2024/03/11 02:20:21;;;;;;;8.10;2.95;;;;;;;-3.44;46.83;100819.06;4799858;29;20463;-71
2024/03/11 02:22:49;;;;;;;6.72;2.65;;;;;;;-3.42;46.79;100832.72;4782957;29;20061;-72
2024/03/11 02:25:20;;;;;;;4.68;2.65;;;;;;;-4.27;47.13;100695.03;4797451;29;20049;-73
2024/03/11 02:27:50;;;;;;;4.05;2.38;;;;;;;-3.54;47.24;100832.84;4786896;29;20145;-71
2024/03/11 02:30:16;;;;;;;5.57;2.90;;;;;;;-3.64;46.89;100833.03;4771213;29;20057;-71
2024/03/11 02:32:46;;;;;;;8.88;3.03;;;;;;;-3.68;47.54;100836.16;4797918;29;20043;-70
2024/03/11 02:35:12;;;;;;;6.07;3.05;;;;;;;-3.88;47.50;100832.31;4779718;29;20137;-72
2024/03/11 02:37:38;;;;;;;8.20;3.00;;;;;;;-3.88;47.71;100842.50;4816446;29;20053;-72
2024/03/11 02:40:09;;;;;;;7.35;3.40;;;;;;;-4.25;47.33;100812.94;4784908;29;20547;-72
2024/03/11 02:42:36;;;;;;;7.75;3.70;;;;;;;-4.25;47.29;100849.41;4795201;29;20052;-72
2024/03/11 02:45:05;;;;;;;8.38;3.33;;;;;;;-4.79;47.80;100779.69;4815838;29;20046;-71
2024/03/11 02:47:32;;;;;;;10.60;3.33;;;;;;;-4.94;48.00;100760.88;4784349;29;20103;-72
2024/03/11 02:49:58;;;;;;;7.60;3.10;;;;;;;-4.65;48.09;100811.13;4782141;29;20056;-73
2024/03/11 02:52:24;;;;;;;10.30;3.42;;;;;;;-5.06;48.15;100746.53;4798687;29;20045;-71
2024/03/11 02:54:53;;;;;;;6.20;3.17;;;;;;;-4.52;48.28;100852.63;4812501;29;20042;-73
2024/03/11 02:57:20;;;;;;;9.85;3.50;;;;;;;-4.96;48.39;100788.66;4785812;29;20141;-73
2024/03/11 02:59:46;;;;;;;7.35;3.55;;;;;;;-4.49;48.14;100850.28;4784579;29;20050;-72
2024/03/11 03:02:12;;;;;;;8.95;3.28;;;;;;;-4.56;48.17;100832.09;4778641;29;20057;-72
2024/03/11 03:04:41;;;;;;;8.55;3.40;;;;;;;-4.58;48.19;100812.41;4801392;29;20133;-71
2024/03/11 03:07:08;;;;;;;6.93;3.13;;;;;;;-4.46;48.21;100830.16;4798641;29;20038;-72
2024/03/11 03:09:36;;;;;;;6.97;3.22;;;;;;;-4.39;48.54;100839.97;4807413;29;20077;-73
2024/03/11 03:12:03;;;;;;;13.32;3.40;;;;;;;-5.29;48.16;100684.91;4798659;29;20042;-73
2024/03/11 03:14:30;;;;;;;9.52;3.35;;;;;;;-4.89;48.35;100778.19;4814579;29;20091;-74
2024/03/11 03:16:57;;;;;;;9.88;3.47;;;;;;;-4.57;48.61;100854.84;4784600;29;20089;-71
2024/03/11 03:19:26;;;;;;;8.90;3.55;;;;;;;-5.23;48.79;100765.69;4786990;29;20046;-72
2024/03/11 03:21:52;;;;;;;7.30;3.63;;;;;;;-4.95;49.24;100814.97;4785015;29;20505;-73
2024/03/11 03:24:18;;;;;;;6.18;3.30;;;;;;;-4.89;49.25;100833.19;4818691;29;20042;-73
2024/03/11 03:26:44;;;;;;;9.77;3.22;;;;;;;-4.75;49.24;100845.16;4788225;29;20096;-71
2024/03/11 03:29:11;;;;;;;9.15;3.88;;;;;;;-5.07;49.51;100793.00;4787535;29;20054;-72
2024/03/11 03:31:37;;;;;;;5.95;3.17;;;;;;;-5.22;49.54;100770.00;4786349;29;20121;-73
2024/03/11 03:34:06;;;;;;;6.47;3.70;;;;;;;-5.01;49.66;100817.97;4786408;29;20055;-73
2024/03/11 03:36:32;;;;;;;8.82;2.53;;;;;;;-4.90;49.43;100844.09;4773444;29;20544;-73
2024/03/11 03:38:58;;;;;;;9.38;3.20;;;;;;;-4.86;49.22;100867.28;4802605;29;20521;-73
2024/03/11 03:41:25;;;;;;;8.13;3.60;;;;;;;-5.08;49.65;100828.44;4789218;29;20100;-73
2024/03/11 03:43:51;;;;;;;9.93;3.60;;;;;;;-5.10;49.88;100824.91;4804825;29;20472;-74
2024/03/11 03:46:18;;;;;;;7.43;3.17;;;;;;;-5.33;49.93;100803.88;4775829;29;20042;-75
2024/03/11 03:48:49;;;;;;;10.35;4.00;;;;;;;-5.46;49.85;100786.88;4774916;29;20134;-76
2024/03/11 03:51:18;;;;;;;10.27;3.83;;;;;;;-5.10;50.13;100876.59;4805470;29;20046;-78
2024/03/11 03:53:45;;;;;;;17.00;3.70;;;;;;;-5.89;50.11;100766.94;4800951;29;20147;-76
2024/03/11 03:56:11;;;;;;;8.27;3.20;;;;;;;-6.40;50.12;100700.78;4799661;29;20414;-77
2024/03/11 03:58:37;;;;;;;12.45;4.60;;;;;;;-5.77;50.34;100788.09;4817903;29;20077;-75
2024/03/11 04:01:07;;;;;;;11.88;4.38;;;;;;;-5.35;50.52;100858.69;4817714;29;20047;-77
2024/03/11 04:03:36;;;;;;;9.77;3.90;;;;;;;-5.78;50.41;100788.88;4788947;29;20039;-74
2024/03/11 04:06:05;;;;;;;14.50;4.18;;;;;;;-5.55;50.42;100825.16;4802848;29;20054;-73
2024/03/11 04:08:31;;;;;;;7.80;3.42;;;;;;;-5.36;50.10;100840.06;4799026;29;20077;-75
2024/03/11 04:10:58;;;;;;;11.95;4.13;;;;;;;-6.07;50.46;100728.50;4790824;29;20042;-79
2024/03/11 04:13:27;;;;;;;12.07;4.72;;;;;;;-5.36;50.37;100839.16;4774560;29;20422;-75
2024/03/11 04:15:57;;;;;;;11.15;3.80;;;;;;;-5.10;50.33;100865.53;4774448;29;20042;-77
2024/03/11 04:18:24;;;;;;;9.48;3.85;;;;;;;-5.83;50.65;100729.31;4789408;29;20054;-80
2024/03/11 04:20:55;;;;;;;11.55;3.95;;;;;;;-5.30;50.37;100794.84;4800476;29;20046;-77
2024/03/11 04:23:26;;;;;;;10.45;3.90;;;;;;;-4.95;50.66;100820.91;4788780;29;20054;-76
2024/03/11 04:25:54;;;;;;;14.40;4.93;;;;;;;-4.95;50.29;100795.53;4804018;29;20111;-79
2024/03/11 04:28:21;;;;;;;15.73;4.38;;;;;;;-4.78;50.11;100806.84;4790630;29;20054;-80
2024/03/11 04:30:48;;;;;;;16.33;4.10;;;;;;;-4.80;50.22;100775.38;4803965;29;20049;-77
2024/03/11 04:33:17;;;;;;;12.50;4.93;;;;;;;-4.73;49.67;100753.81;4784373;29;20074;-80
2024/03/11 04:35:44;;;;;;;10.07;3.88;;;;;;;-4.24;49.46;100848.63;4804150;29;20053;-83
2024/03/11 04:38:10;;;;;;;17.05;4.63;;;;;;;-4.04;50.02;100864.34;4792934;29;20106;-76
2024/03/11 04:40:47;;;;;;;10.32;3.95;;;;;;;-4.17;49.26;100827.03;4787635;29;20102;-77
2024/03/11 04:43:17;;;;;;;10.65;3.65;;;;;;;-3.76;49.54;100878.91;4808071;29;20055;-75
2024/03/11 04:45:43;;;;;;;10.55;4.03;;;;;;;-4.74;49.32;100724.13;4792707;29;20114;-77
2024/03/11 04:48:11;;;;;;;11.52;3.80;;;;;;;-3.64;49.71;100881.38;4770498;29;20239;-74
2024/03/11 04:50:38;;;;;;;10.90;3.90;;;;;;;-4.19;49.54;100780.28;4801529;29;20058;-78
2024/03/11 04:53:05;;;;;;;10.40;4.38;;;;;;;-3.52;49.65;100856.72;4794305;29;20503;-79
2024/03/11 04:55:33;;;;;;;11.73;3.90;;;;;;;-3.74;49.39;100798.47;4789891;29;20058;-81
2024/03/11 04:58:00;;;;;;;14.95;3.75;;;;;;;-3.49;49.06;100823.81;4804168;29;20422;-79
2024/03/11 05:00:28;;;;;;;13.38;4.40;;;;;;;-3.16;49.13;100869.16;4802720;29;20575;-83
2024/03/11 05:02:57;;;;;;;14.05;4.88;;;;;;;-3.66;48.72;100774.41;4786842;29;20142;-79
2024/03/11 05:05:31;;;;;;;15.02;4.05;;;;;;;-2.98;48.74;100876.22;4806345;29;20074;-87
2024/03/11 05:07:57;;;;;;;14.43;4.22;;;;;;;-3.20;49.08;100829.91;4782753;29;20043;-87
2024/03/11 05:10:24;;;;;;;10.13;4.20;;;;;;;-3.30;48.93;100803.75;4802024;29;20051;-69
2024/03/11 05:12:50;;;;;;;8.07;4.00;;;;;;;-2.91;49.02;100853.78;4791189;29;20081;-71
2024/03/11 05:15:19;;;;;;;10.10;4.00;;;;;;;-3.10;48.47;100798.25;4772717;29;20053;-70
2024/03/11 05:17:46;;;;;;;7.63;4.32;;;;;;;-2.69;48.54;100860.22;4771127;29;20062;-67
2024/03/11 05:20:14;;;;;;;12.00;4.85;;;;;;;-2.88;48.67;100827.59;4787279;29;21408;-76
2024/03/11 05:22:41;;;;;;;10.25;4.25;;;;;;;-2.55;48.49;100889.09;4810672;29;20057;-69
2024/03/11 05:25:08;;;;;;;8.82;4.40;;;;;;;-2.50;48.81;100882.59;4793410;29;20469;-69
2024/03/11 05:27:36;;;;;;;12.23;4.93;;;;;;;-2.46;48.44;100899.84;4766478;29;20054;-70
2024/03/11 05:30:04;;;;;;;12.32;4.40;;;;;;;-2.43;48.93;100869.44;4775711;29;20742;-72
2024/03/11 05:32:32;;;;;;;15.43;5.57;;;;;;;-2.23;48.34;100877.41;4788150;29;20133;-68
2024/03/11 05:34:58;;;;;;;11.43;4.50;;;;;;;-2.09;48.50;100885.00;4780408;29;20051;-70
2024/03/11 05:37:26;;;;;;;11.75;4.60;;;;;;;-2.02;48.21;100882.91;4773888;29;20043;-70
2024/03/11 05:39:54;;;;;;;11.20;4.93;;;;;;;-1.88;48.10;100891.41;4795476;29;20057;-69
2024/03/11 05:42:20;;;;;;;14.35;5.82;;;;;;;-1.77;48.40;100893.69;4792063;29;20149;-71
2024/03/11 05:44:47;;;;;;;11.95;4.90;;;;;;;-1.56;48.50;100897.47;4765575;29;20047;-71
2024/03/11 05:47:16;;;;;;;15.18;5.47;;;;;;;-1.58;47.70;100870.97;4798880;29;20047;-71
2024/03/11 05:49:48;;;;;;;13.65;4.90;;;;;;;-1.79;47.99;100834.00;4782897;29;21081;-72
2024/03/11 05:52:14;;;;;;;11.73;4.68;;;;;;;-1.62;47.73;100835.84;4804660;29;20046;-71
2024/03/11 05:54:50;;;;;;;19.65;5.00;;;;;;;-1.54;48.27;100832.06;4788863;29;20533;-69
2024/03/11 05:57:25;;;;;;;13.40;5.55;;;;;;;-0.93;48.32;100878.84;4783282;29;20524;-70
2024/03/11 05:59:52;;;;;;;12.52;5.05;;;;;;;-0.55;47.87;100877.47;4786941;29;20070;-71
2024/03/11 06:02:20;;;;;;;14.25;5.95;;;;;;;-0.25;47.84;100876.44;4784665;29;20039;-71
2024/03/11 06:04:47;;;;;;;15.52;5.13;;;;;;;0.31;47.09;100874.16;4786772;29;20042;-70
2024/03/11 06:07:17;;;;;;;12.35;5.32;;;;;;;0.78;47.02;100900.34;4780114;29;20928;-69
2024/03/11 06:09:43;;;;;;;14.80;5.10;;;;;;;0.62;45.66;100873.09;4783039;29;20051;-69
2024/03/11 06:12:10;;;;;;;14.35;5.70;;;;;;;0.09;46.48;100801.41;4799717;29;20051;-71
2024/03/11 06:14:37;;;;;;;22.00;5.63;;;;;;;0.63;46.17;100903.03;4782084;29;20054;-72
2024/03/11 06:17:06;;;;;;;15.35;5.68;;;;;;;0.68;45.78;100869.13;4787111;29;20457;-68
2024/03/11 06:19:32;;;;;;;17.00;5.15;;;;;;;0.71;45.38;100794.13;4785857;29;20043;-70
2024/03/11 06:21:58;;;;;;;12.93;4.97;;;;;;;1.44;45.19;100846.13;4792137;29;20050;-72
2024/03/11 06:24:24;;;;;;;12.07;4.80;;;;;;;2.19;44.51;100855.34;4790792;29;20142;-76
2024/03/11 06:26:53;;;;;;;10.50;5.05;;;;;;;2.74;44.95;100818.19;4775766;29;20049;-74
2024/03/11 06:29:19;;;;;;;16.33;5.10;;;;;;;4.52;44.67;100865.72;4759454;29;20054;-73
2024/03/11 06:31:48;;;;;;;20.73;5.40;;;;;;;6.43;43.30;100803.13;4791232;29;20031;-72
2024/03/11 06:34:14;;;;;;;15.35;5.07;;;;;;;8.70;41.30;100848.22;4778036;29;20061;-78
2024/03/11 06:36:42;;;;;;;12.75;4.45;;;;;;;10.00;39.02;100812.56;4794169;29;21392;-72
2024/03/11 06:39:08;;;;;;;17.15;4.97;;;;;;;10.91;36.58;100815.03;4789198;29;20047;-71
2024/03/11 06:41:34;;;;;;;12.85;5.32;;;;;;;11.75;35.60;100790.19;4775908;29;20648;-74
2024/03/11 06:44:00;;;;;;;16.50;5.13;;;;;;;13.25;33.85;100823.19;4787371;29;20480;-72
2024/03/11 06:46:28;;;;;;;17.15;5.53;;;;;;;14.43;32.00;100845.19;4785442;29;20050;-70
2024/03/11 06:48:55;;;;;;;8.75;4.63;;;;;;;15.16;31.10;100810.44;4761124;29;20709;-70
2024/03/11 06:51:21;;;;;;;16.23;5.63;;;;;;;16.27;30.02;100839.56;4789394;29;20053;-71
2024/03/11 06:53:55;;;;;;;13.50;5.03;;;;;;;17.51;28.79;100841.72;4777157;29;20429;-79
2024/03/11 06:56:24;;;;;;;9.13;4.75;;;;;;;17.95;27.60;100820.53;4785219;29;20045;-75
2024/03/11 06:58:50;;;;;;;10.80;4.75;;;;;;;18.57;26.80;100816.41;4799689;29;20047;-73
2024/03/11 07:01:16;;;;;;;13.57;4.78;;;;;;;19.15;26.00;100808.72;4779339;29;20399;-74
2024/03/11 07:03:42;;;;;;;16.67;4.70;;;;;;;19.96;25.32;100820.41;4784078;29;20086;-81
2024/03/11 07:06:09;;;;;;;11.20;4.18;;;;;;;19.99;24.17;100835.28;4791491;29;20070;-75
2024/03/11 07:08:38;;;;;;;8.70;4.03;;;;;;;17.77;24.20;100757.75;4809443;29;20043;-82
2024/03/11 07:11:05;;;;;;;8.13;3.83;;;;;;;16.15;24.91;100792.47;4777697;29;20046;-78
2024/03/11 07:13:32;;;;;;;10.80;3.72;;;;;;;14.39;25.05;100759.69;4776207;29;20047;-79
2024/03/11 07:15:59;;;;;;;7.13;3.15;;;;;;;13.63;25.85;100838.72;4784516;29;20517;-77
2024/03/11 07:18:26;;;;;;;5.70;3.05;;;;;;;12.05;26.28;100753.75;4787174;29;20158;-77
2024/03/11 07:20:55;;;;;;;6.05;2.85;;;;;;;10.77;26.93;100780.25;4801519;29;20070;-78
2024/03/11 07:23:22;;;;;;;14.95;2.20;;;;;;;9.77;27.91;100836.59;4774095;29;20058;-78
2024/03/11 07:26:02;;;;;;;3.35;1.85;;;;;;;8.71;28.64;100753.94;4773138;29;20047;-78
2024/03/11 07:28:41;;;;;;;4.70;2.20;;;;;;;8.44;29.59;100788.97;4787673;29;20050;-78
2024/03/11 07:31:18;;;;;;;3.25;2.03;;;;;;;8.02;29.75;100784.81;4780432;29;20046;-79
2024/03/11 07:33:59;;;;;;;2.85;2.10;;;;;;;8.01;29.79;100847.00;4776526;29;20051;-80
2024/03/11 07:36:26;;;;;;;4.55;2.28;;;;;;;6.92;30.51;100703.34;4786299;29;20092;-82
2024/03/11 07:38:55;;;;;;;2.72;2.10;;;;;;;7.08;30.54;100758.00;4789355;29;20087;-78
2024/03/11 07:41:24;;;;;;;4.43;2.40;;;;;;;7.34;30.71;100837.94;4799826;29;20046;-77
2024/03/11 07:43:51;;;;;;;6.32;2.60;;;;;;;6.66;31.43;100761.41;4801397;29;20046;-78
2024/03/11 07:46:19;;;;;;;5.40;2.28;;;;;;;6.67;32.04;100783.84;4789199;29;21181;-78
2024/03/11 07:48:46;;;;;;;3.95;2.20;;;;;;;6.32;32.03;100761.50;4775358;29;20047;-80
2024/03/11 07:51:15;;;;;;;3.35;1.88;;;;;;;6.50;32.66;100786.94;4784866;29;20047;-81
2024/03/11 07:53:46;;;;;;;5.18;2.20;;;;;;;6.06;32.51;100753.13;4787070;29;20129;-81
2024/03/11 07:56:16;;;;;;;4.00;1.80;;;;;;;6.36;32.37;100858.09;4781944;29;20057;-78
2024/03/11 07:58:42;;;;;;;6.63;2.10;;;;;;;6.14;32.95;100855.84;4802235;29;20111;-79
2024/03/11 08:01:08;;;;;;;4.25;1.65;;;;;;;6.15;33.02;100841.22;4775238;29;20054;-78
2024/03/11 08:03:34;;;;;;;4.65;1.77;;;;;;;5.88;33.24;100834.44;4796351;29;20572;-80
2024/03/11 08:06:00;;;;;;;3.40;1.98;;;;;;;5.65;33.74;100823.50;4785079;29;20047;-81
2024/03/11 08:08:26;;;;;;;8.10;4.50;;;;;;;5.48;34.26;100790.34;4772471;29;20463;-80
2024/03/11 08:10:53;;;;;;;2.65;1.95;;;;;;;5.42;33.68;100783.28;4786977;29;20529;-80
2024/03/11 08:13:19;;;;;;;10.25;2.50;;;;;;;5.21;33.93;100750.03;4806301;29;20502;-78
2024/03/11 08:15:45;;;;;;;13.63;2.30;;;;;;;5.72;34.26;100854.69;4785422;29;20557;-76
2024/03/11 08:18:13;;;;;;;5.05;1.80;;;;;;;5.43;34.52;100852.16;4800481;29;20050;-78
2024/03/11 08:20:39;;;;;;;9.20;2.40;;;;;;;5.02;34.19;100809.66;4779895;29;20097;-79
2024/03/11 08:23:06;;;;;;;5.30;1.58;;;;;;;4.55;34.16;100773.84;4783251;29;20047;-78
2024/03/11 08:25:32;;;;;;;1.95;1.48;;;;;;;4.67;34.49;100838.69;4783881;29;20383;-80
2024/03/11 08:27:58;;;;;;;3.90;2.20;;;;;;;4.71;35.09;100849.97;4801891;29;20164;-82
2024/03/11 08:30:30;;;;;;;3.65;1.88;;;;;;;4.11;34.91;100743.25;4800735;29;20050;-80
2024/03/11 08:32:56;;;;;;;;;;;;;;;4.66;35.43;100845.53;4817505;29;20040;-81
2024/03/11 08:35:25;;;;;;;2.70;1.88;;;;;;;5.45;36.52;100800.59;4797489;29;20379;-80
2024/03/11 08:37:52;;;;;;;4.65;1.92;;;;;;;6.74;35.17;100768.50;4772015;29;20077;-80
2024/03/11 08:40:22;;;;;;;3.47;1.80;;;;;;;8.05;34.32;100834.13;4786482;29;20137;-81
2024/03/11 08:42:48;;;;;;;10.48;3.42;;;;;;;8.53;33.65;100758.84;4785528;29;20042;-82
2024/03/11 08:45:23;;;;;;;9.80;6.13;;;;;;;11.22;34.52;100809.13;4792722;29;20640;-83
2024/03/11 08:47:50;;;;;;;2.83;2.13;;;;;;;12.98;32.70;100687.41;4804569;29;20107;-85
2024/03/11 08:50:17;;;;;;;5.95;3.15;;;;;;;15.91;31.11;100700.13;4804422;29;20146;-83
2024/03/11 08:52:46;;;;;;;4.47;2.72;;;;;;;18.59;28.88;100773.31;4785820;29;20058;-83
2024/03/11 08:55:13;;;;;;;5.57;3.33;;;;;;;20.76;27.28;100756.09;4785843;29;20043;-83
2024/03/11 08:57:40;;;;;;;3.35;2.67;;;;;;;21.59;25.21;100767.09;4789473;29;20043;-86
2024/03/11 09:00:11;;;;;;;8.23;2.58;;;;;;;22.67;24.49;100759.13;4788236;29;20077;-81
2024/03/11 09:02:39;;;;;;;4.90;3.35;;;;;;;23.82;23.66;100798.16;4789417;29;20514;-83
2024/03/11 09:05:23;;;;;;;4.40;2.50;;;;;;;24.57;22.49;100782.91;4800049;29;20073;-82
2024/03/11 09:07:51;;;;;;;4.43;2.53;;;;;;;25.06;21.75;100754.63;4799465;29;20046;-77
2024/03/11 09:10:22;;;;;;;6.50;2.78;;;;;;;25.42;20.25;100767.72;4797939;29;20104;-83
2024/03/11 09:12:49;;;;;;;9.23;3.35;;;;;;;24.92;19.46;100742.94;4800483;29;20035;-75
2024/03/11 09:15:15;;;;;;;12.00;3.30;;;;;;;24.18;19.60;100771.56;4769091;29;20066;-75
2024/03/11 09:17:43;;;;;;;6.43;3.40;;;;;;;23.51;18.83;100746.50;4785084;29;20051;-76
2024/03/11 09:20:15;;;;;;;6.55;2.70;;;;;;;22.64;19.08;100753.09;4783082;29;20065;-74
2024/03/11 09:22:45;;;;;;;13.25;3.20;;;;;;;21.55;19.34;100764.63;4770762;29;20129;-80
2024/03/11 09:25:17;;;;;;;9.95;3.03;;;;;;;20.88;19.61;100704.53;4796423;29;20072;-75
2024/03/11 09:27:47;;;;;;;3.80;2.20;;;;;;;20.06;19.95;100694.19;4784184;29;20042;-80
2024/03/11 09:30:14;;;;;;;8.43;3.00;;;;;;;20.41;20.30;100731.72;4798750;29;20116;-81
2024/03/11 09:32:43;;;;;;;6.88;3.53;;;;;;;20.97;20.29;100674.22;4786359;29;20047;-77
2024/03/11 09:35:09;;;;;;;7.97;2.70;;;;;;;20.16;19.24;100708.81;4796058;29;20112;-75
2024/03/11 09:37:37;;;;;;;6.43;3.55;;;;;;;18.61;20.11;100766.25;4808369;29;20043;-73
2024/03/11 09:40:09;;;;;;;5.43;3.47;;;;;;;17.29;20.54;100703.59;4780301;29;20113;-76
2024/03/11 09:42:37;;;;;;;6.80;3.50;;;;;;;16.60;21.47;100739.19;4784451;29;20114;-70
2024/03/11 09:45:09;;;;;;;10.00;5.72;;;;;;;16.27;21.91;100764.25;4775963;29;20064;-69
2024/03/11 09:47:36;;;;;;;6.32;3.88;;;;;;;15.43;22.49;100748.03;4796048;29;20043;-69
2024/03/11 09:50:03;;;;;;;8.68;3.30;;;;;;;16.42;23.23;100746.53;4796728;29;20783;-69
2024/03/11 09:52:33;;;;;;;8.18;4.13;;;;;;;19.13;23.05;100734.06;4796907;29;20046;-66
2024/03/11 09:54:59;;;;;;;8.40;3.47;;;;;;;20.08;21.60;100712.66;4778784;29;20157;-68
2024/03/11 09:57:25;;;;;;;8.98;4.38;;;;;;;19.39;21.20;100727.13;4797696;29;20137;-68
2024/03/11 09:59:54;;;;;;;10.95;3.65;;;;;;;18.73;21.31;100716.72;4781683;29;20073;-68
2024/03/11 10:02:26;;;;;;;5.70;3.10;;;;;;;17.54;21.18;100732.00;4798899;29;20407;-68
2024/03/11 10:04:58;;;;;;;8.55;3.50;;;;;;;16.34;22.37;100728.25;4790486;29;20043;-69
2024/03/11 10:07:25;;;;;;;7.00;4.22;;;;;;;15.01;22.53;100714.50;4796812;29;20046;-72
2024/03/11 10:09:51;;;;;;;6.22;3.45;;;;;;;13.99;23.57;100657.09;4796315;29;20042;-67
2024/03/11 10:12:21;;;;;;;15.32;3.85;;;;;;;13.50;23.58;100704.56;4767067;29;20096;-67
2024/03/11 10:14:50;;;;;;;13.32;4.00;;;;;;;12.54;24.67;100710.22;4779659;29;20055;-66
2024/03/11 10:17:28;;;;;;;9.45;5.63;;;;;;;11.83;25.62;100703.28;4795409;29;20533;-66
2024/03/11 10:19:58;;;;;;;4.93;3.50;;;;;;;11.17;25.95;100645.00;4795126;29;20150;-68
2024/03/11 10:22:30;;;;;;;8.13;6.28;;;;;;;11.82;26.16;100732.81;4758785;29;20035;-66
2024/03/11 10:24:58;;;;;;;7.07;4.80;;;;;;;11.38;26.61;100627.66;4822023;29;20047;-68
2024/03/11 10:27:31;;;;;;;9.50;5.60;;;;;;;12.02;26.52;100733.75;4779674;29;20150;-67
2024/03/11 10:29:57;;;;;;;12.07;3.50;;;;;;;11.64;26.01;100692.84;4751348;29;20673;-69
2024/03/11 10:32:42;;;;;;;7.82;3.58;;;;;;;11.00;26.92;100725.69;4793554;29;20047;-71
2024/03/11 10:35:11;;;;;;;7.60;3.35;;;;;;;10.35;27.22;100709.69;4792420;29;20053;-70
2024/03/11 10:37:39;;;;;;;8.32;4.10;;;;;;;9.74;27.89;100716.16;4795351;29;20038;-68
2024/03/11 10:40:10;;;;;;;7.45;3.72;;;;;;;9.22;27.80;100681.00;4781959;29;20445;-68
2024/03/11 10:42:37;;;;;;;8.10;3.75;;;;;;;8.78;28.91;100683.94;4798659;29;20143;-67
2024/03/11 10:45:07;;;;;;;5.28;3.17;;;;;;;8.83;29.22;100687.47;4790192;29;20445;-68
2024/03/11 10:47:33;;;;;;;6.95;3.80;;;;;;;8.98;29.86;100717.94;4802106;29;20077;-68
2024/03/11 10:50:01;;;;;;;8.07;3.78;;;;;;;9.35;30.42;100702.78;4797154;29;20046;-68
2024/03/11 10:52:34;;;;;;;11.57;4.60;;;;;;;9.68;30.44;100678.00;4782326;29;20134;-70
2024/03/11 10:55:02;;;;;;;6.63;4.18;;;;;;;10.01;29.96;100697.31;4792247;29;20057;-69
2024/03/11 10:57:34;;;;;;;5.20;4.10;;;;;;;10.07;29.59;100696.47;4783749;29;20468;-67
2024/03/11 11:00:10;;;;;;;5.57;3.33;;;;;;;10.03;29.82;100689.53;4821106;29;20055;-69
2024/03/11 11:02:41;;;;;;;5.97;3.25;;;;;;;9.65;29.59;100634.63;4769966;29;20485;-68
2024/03/11 11:05:09;;;;;;;12.25;3.30;;;;;;;9.50;29.93;100631.91;4780008;29;20458;-71
2024/03/11 11:07:36;;;;;;;6.95;4.35;;;;;;;9.20;29.98;100591.81;4753659;29;20464;-70
2024/03/11 11:10:03;;;;;;;6.70;3.65;;;;;;;8.99;29.15;100673.81;4790788;29;20909;-71
2024/03/11 11:12:30;;;;;;;6.18;3.83;;;;;;;8.04;30.46;100671.69;4800371;29;20470;-66
2024/03/11 11:15:02;;;;;;;4.50;3.15;;;;;;;7.20;31.24;100617.59;4826419;29;20054;-67
2024/03/11 11:17:31;;;;;;;9.05;3.90;;;;;;;7.17;31.52;100635.66;4783404;29;20046;-70
2024/03/11 11:20:17;;;;;;;6.70;3.83;;;;;;;7.14;32.01;100672.72;4808056;29;20047;-70
2024/03/11 11:22:43;;;;;;;5.97;3.42;;;;;;;6.82;32.33;100706.56;4769869;29;20042;-69
2024/03/11 11:25:32;;;;;;;10.07;3.63;;;;;;;6.46;32.92;100677.38;4781975;29;20078;-70
2024/03/11 11:27:59;;;;;;;8.27;3.67;;;;;;;5.86;32.27;100630.34;4793817;29;20051;-66
2024/03/11 11:30:28;;;;;;;7.78;4.18;;;;;;;5.91;33.87;100689.84;4780445;29;20139;-66